sensor_id;sensor_type;location;lat;lon;timestamp;temperature;humidity
14126;DHT22;7141;49.484;11.242;2023-03-12T00:00:45;-2.50;99.90
14126;DHT22;7141;49.484;11.242;2023-03-12T00:03:11;-2.50;99.90
14126;DHT22;7141;49.484;11.242;2023-03-12T00:05:41;-1.40;99.90
14126;DHT22;7141;49.484;11.242;2023-03-12T00:08:07;-2.50;99.90
14126;DHT22;7141;49.484;11.242;2023-03-12T00:10:33;-2.50;99.90
14126;DHT22;7141;49.484;11.242;2023-03-12T00:12:59;-2.50;99.90
14126;DHT22;7141;49.484;11.242;2023-03-12T00:15:24;-2.50;99.90
14126;DHT22;7141;49.484;11.242;2023-03-12T00:17:50;-2.50;99.90
14126;DHT22;7141;49.484;11.242;2023-03-12T00:20:16;-2.50;99.90
14126;DHT22;7141;49.484;11.242;2023-03-12T00:22:42;-2.50;99.90
14126;DHT22;7141;49.484;11.242;2023-03-12T00:25:11;-2.50;99.90
14126;DHT22;7141;49.484;11.242;2023-03-12T00:27:38;-2.50;99.90
14126;DHT22;7141;49.484;11.242;2023-03-12T00:30:04;-2.60;99.90
14126;DHT22;7141;49.484;11.242;2023-03-12T00:32:32;-2.50;99.90
14126;DHT22;7141;49.484;11.242;2023-03-12T00:34:57;-2.50;99.90
14126;DHT22;7141;49.484;11.242;2023-03-12T00:37:23;-2.40;99.90
14126;DHT22;7141;49.484;11.242;2023-03-12T00:39:49;-2.30;99.90
14126;DHT22;7141;49.484;11.242;2023-03-12T00:42:15;-2.30;99.90
14126;DHT22;7141;49.484;11.242;2023-03-12T00:44:40;-2.20;99.90
14126;DHT22;7141;49.484;11.242;2023-03-12T00:47:06;-2.20;99.90
14126;DHT22;7141;49.484;11.242;2023-03-12T00:49:32;-2.20;99.90
14126;DHT22;7141;49.484;11.242;2023-03-12T00:51:57;-2.10;99.90
14126;DHT22;7141;49.484;11.242;2023-03-12T00:54:23;-2.00;99.90
14126;DHT22;7141;49.484;11.242;2023-03-12T00:56:48;-2.10;99.90
14126;DHT22;7141;49.484;11.242;2023-03-12T00:59:14;-2.10;99.90
14126;DHT22;7141;49.484;11.242;2023-03-12T01:01:41;-2.00;99.90
14126;DHT22;7141;49.484;11.242;2023-03-12T01:04:07;-2.00;99.90
14126;DHT22;7141;49.484;11.242;2023-03-12T01:06:32;-2.00;99.90
14126;DHT22;7141;49.484;11.242;2023-03-12T01:09:00;-2.10;99.90
14126;DHT22;7141;49.484;11.242;2023-03-12T01:11:26;-2.20;99.90
14126;DHT22;7141;49.484;11.242;2023-03-12T01:13:52;-2.30;99.90
14126;DHT22;7141;49.484;11.242;2023-03-12T01:16:17;-2.50;99.90
14126;DHT22;7141;49.484;11.242;2023-03-12T01:18:43;-2.60;99.90
14126;DHT22;7141;49.484;11.242;2023-03-12T01:21:09;-2.70;99.90
14126;DHT22;7141;49.484;11.242;2023-03-12T01:23:36;-2.80;99.90
14126;DHT22;7141;49.484;11.242;2023-03-12T01:26:01;-2.80;99.90
14126;DHT22;7141;49.484;11.242;2023-03-12T01:28:27;-2.70;99.90
14126;DHT22;7141;49.484;11.242;2023-03-12T01:30:52;-2.50;99.90
14126;DHT22;7141;49.484;11.242;2023-03-12T01:33:18;-2.50;99.90
14126;DHT22;7141;49.484;11.242;2023-03-12T01:35:47;-2.50;99.90
14126;DHT22;7141;49.484;11.242;2023-03-12T01:38:14;-2.50;99.90
14126;DHT22;7141;49.484;11.242;2023-03-12T01:40:41;-2.60;99.90
14126;DHT22;7141;49.484;11.242;2023-03-12T01:43:29;-2.60;99.90
14126;DHT22;7141;49.484;11.242;2023-03-12T01:46:03;-2.50;99.90
14126;DHT22;7141;49.484;11.242;2023-03-12T01:48:33;-2.50;99.90
14126;DHT22;7141;49.484;11.242;2023-03-12T01:51:01;-2.40;99.90
14126;DHT22;7141;49.484;11.242;2023-03-12T01:53:27;-2.70;99.90
14126;DHT22;7141;49.484;11.242;2023-03-12T01:55:54;-2.80;99.90
14126;DHT22;7141;49.484;11.242;2023-03-12T01:58:20;-2.90;99.90
14126;DHT22;7141;49.484;11.242;2023-03-12T02:00:46;-2.90;99.90
14126;DHT22;7141;49.484;11.242;2023-03-12T02:03:13;-2.80;99.90
14126;DHT22;7141;49.484;11.242;2023-03-12T02:08:11;-2.90;99.90
14126;DHT22;7141;49.484;11.242;2023-03-12T02:10:37;-3.10;99.90
14126;DHT22;7141;49.484;11.242;2023-03-12T02:13:03;-3.20;99.90
14126;DHT22;7141;49.484;11.242;2023-03-12T02:15:29;-3.20;99.90
14126;DHT22;7141;49.484;11.242;2023-03-12T02:17:55;-3.20;99.90
14126;DHT22;7141;49.484;11.242;2023-03-12T02:20:47;-3.10;99.90
14126;DHT22;7141;49.484;11.242;2023-03-12T02:23:34;-3.10;99.90
14126;DHT22;7141;49.484;11.242;2023-03-12T02:26:01;-3.10;99.90
14126;DHT22;7141;49.484;11.242;2023-03-12T02:28:29;-3.20;99.90
14126;DHT22;7141;49.484;11.242;2023-03-12T02:30:59;-3.10;99.90
14126;DHT22;7141;49.484;11.242;2023-03-12T02:33:26;-3.10;99.90
14126;DHT22;7141;49.484;11.242;2023-03-12T02:35:52;-3.00;99.90
14126;DHT22;7141;49.484;11.242;2023-03-12T02:40:51;-3.00;99.90
14126;DHT22;7141;49.484;11.242;2023-03-12T02:43:19;-2.90;99.90
14126;DHT22;7141;49.484;11.242;2023-03-12T02:45:45;-2.80;99.90
14126;DHT22;7141;49.484;11.242;2023-03-12T02:48:11;-2.70;99.90
14126;DHT22;7141;49.484;11.242;2023-03-12T02:50:37;-2.60;99.90
14126;DHT22;7141;49.484;11.242;2023-03-12T02:53:03;-2.70;99.90
14126;DHT22;7141;49.484;11.242;2023-03-12T02:55:28;-2.60;99.90
14126;DHT22;7141;49.484;11.242;2023-03-12T02:57:54;-2.50;99.90
14126;DHT22;7141;49.484;11.242;2023-03-12T03:00:19;-2.40;99.90
14126;DHT22;7141;49.484;11.242;2023-03-12T03:02:45;-2.40;99.90
14126;DHT22;7141;49.484;11.242;2023-03-12T03:05:11;-2.40;99.90
14126;DHT22;7141;49.484;11.242;2023-03-12T03:07:37;-2.30;99.90
14126;DHT22;7141;49.484;11.242;2023-03-12T03:10:03;-2.30;99.90
14126;DHT22;7141;49.484;11.242;2023-03-12T03:12:34;-2.20;99.90
14126;DHT22;7141;49.484;11.242;2023-03-12T03:15:00;-2.20;99.90
14126;DHT22;7141;49.484;11.242;2023-03-12T03:17:26;-2.10;99.90
14126;DHT22;7141;49.484;11.242;2023-03-12T03:19:52;-2.10;99.90
14126;DHT22;7141;49.484;11.242;2023-03-12T03:22:19;-2.10;99.90
14126;DHT22;7141;49.484;11.242;2023-03-12T03:24:45;-2.10;99.90
14126;DHT22;7141;49.484;11.242;2023-03-12T03:27:11;-2.10;99.90
14126;DHT22;7141;49.484;11.242;2023-03-12T03:29:37;-2.10;99.90
14126;DHT22;7141;49.484;11.242;2023-03-12T03:32:03;-2.10;99.90
14126;DHT22;7141;49.484;11.242;2023-03-12T03:34:29;-2.00;99.90
14126;DHT22;7141;49.484;11.242;2023-03-12T03:36:54;-2.00;99.90
14126;DHT22;7141;49.484;11.242;2023-03-12T03:39:20;-2.00;99.90
14126;DHT22;7141;49.484;11.242;2023-03-12T03:41:45;-2.00;99.90
14126;DHT22;7141;49.484;11.242;2023-03-12T03:44:12;-2.00;99.90
14126;DHT22;7141;49.484;11.242;2023-03-12T03:46:38;-2.00;99.90
14126;DHT22;7141;49.484;11.242;2023-03-12T03:49:04;-2.00;99.90
14126;DHT22;7141;49.484;11.242;2023-03-12T03:51:30;-2.00;99.90
14126;DHT22;7141;49.484;11.242;2023-03-12T03:53:57;-2.00;99.90
14126;DHT22;7141;49.484;11.242;2023-03-12T03:56:22;-2.00;99.90
14126;DHT22;7141;49.484;11.242;2023-03-12T03:58:48;-2.00;99.90
14126;DHT22;7141;49.484;11.242;2023-03-12T04:01:14;-1.90;99.90
14126;DHT22;7141;49.484;11.242;2023-03-12T04:03:39;-1.90;99.90
14126;DHT22;7141;49.484;11.242;2023-03-12T04:06:05;-1.90;99.90
14126;DHT22;7141;49.484;11.242;2023-03-12T04:08:33;-1.90;99.90
14126;DHT22;7141;49.484;11.242;2023-03-12T04:11:08;-2.00;99.90
14126;DHT22;7141;49.484;11.242;2023-03-12T04:13:35;-1.90;99.90
14126;DHT22;7141;49.484;11.242;2023-03-12T04:16:01;-2.00;99.90
14126;DHT22;7141;49.484;11.242;2023-03-12T04:18:27;-1.90;99.90
14126;DHT22;7141;49.484;11.242;2023-03-12T04:20:53;-1.90;99.90
14126;DHT22;7141;49.484;11.242;2023-03-12T04:23:18;-1.80;99.90
14126;DHT22;7141;49.484;11.242;2023-03-12T04:25:44;-1.80;99.90
14126;DHT22;7141;49.484;11.242;2023-03-12T04:28:09;-1.70;99.90
14126;DHT22;7141;49.484;11.242;2023-03-12T04:30:35;-1.70;99.90
14126;DHT22;7141;49.484;11.242;2023-03-12T04:33:06;-1.70;99.90
14126;DHT22;7141;49.484;11.242;2023-03-12T04:35:31;-1.70;99.90
14126;DHT22;7141;49.484;11.242;2023-03-12T04:37:59;-1.70;99.90
14126;DHT22;7141;49.484;11.242;2023-03-12T04:40:25;-1.70;99.90
14126;DHT22;7141;49.484;11.242;2023-03-12T04:42:50;-1.70;99.90
14126;DHT22;7141;49.484;11.242;2023-03-12T04:45:16;-1.70;99.90
14126;DHT22;7141;49.484;11.242;2023-03-12T04:47:42;-1.60;99.90
14126;DHT22;7141;49.484;11.242;2023-03-12T04:50:08;-1.60;99.90
14126;DHT22;7141;49.484;11.242;2023-03-12T04:52:34;-1.60;99.90
14126;DHT22;7141;49.484;11.242;2023-03-12T04:54:59;-1.60;99.90
14126;DHT22;7141;49.484;11.242;2023-03-12T04:57:25;-1.60;99.90
14126;DHT22;7141;49.484;11.242;2023-03-12T04:59:51;-1.60;99.90
14126;DHT22;7141;49.484;11.242;2023-03-12T05:02:17;-1.70;99.90
14126;DHT22;7141;49.484;11.242;2023-03-12T05:04:42;-1.60;99.90
14126;DHT22;7141;49.484;11.242;2023-03-12T05:07:08;-1.60;99.90
14126;DHT22;7141;49.484;11.242;2023-03-12T05:09:33;-1.70;99.90
14126;DHT22;7141;49.484;11.242;2023-03-12T05:11:59;-1.70;99.90
14126;DHT22;7141;49.484;11.242;2023-03-12T05:14:25;-1.70;99.90
14126;DHT22;7141;49.484;11.242;2023-03-12T05:16:50;-1.60;99.90
14126;DHT22;7141;49.484;11.242;2023-03-12T05:19:16;-1.60;99.90
14126;DHT22;7141;49.484;11.242;2023-03-12T05:21:42;-1.70;99.90
14126;DHT22;7141;49.484;11.242;2023-03-12T05:24:11;-1.70;99.90
14126;DHT22;7141;49.484;11.242;2023-03-12T05:26:37;-1.80;99.90
14126;DHT22;7141;49.484;11.242;2023-03-12T05:29:04;-1.80;99.90
14126;DHT22;7141;49.484;11.242;2023-03-12T05:31:30;-1.80;99.90
14126;DHT22;7141;49.484;11.242;2023-03-12T05:33:59;-1.80;99.90
14126;DHT22;7141;49.484;11.242;2023-03-12T05:36:25;-1.80;99.90
14126;DHT22;7141;49.484;11.242;2023-03-12T05:38:50;-1.80;99.90
14126;DHT22;7141;49.484;11.242;2023-03-12T05:41:25;-1.80;99.90
14126;DHT22;7141;49.484;11.242;2023-03-12T05:43:52;-1.70;99.90
14126;DHT22;7141;49.484;11.242;2023-03-12T05:46:18;-1.70;99.90
14126;DHT22;7141;49.484;11.242;2023-03-12T05:48:44;-1.60;99.90
14126;DHT22;7141;49.484;11.242;2023-03-12T05:51:10;-1.50;99.90
14126;DHT22;7141;49.484;11.242;2023-03-12T05:53:35;-1.30;99.90
14126;DHT22;7141;49.484;11.242;2023-03-12T05:56:03;-1.20;99.90
14126;DHT22;7141;49.484;11.242;2023-03-12T05:58:30;-1.10;99.90
14126;DHT22;7141;49.484;11.242;2023-03-12T06:00:55;-1.00;99.90
14126;DHT22;7141;49.484;11.242;2023-03-12T06:03:21;-0.90;99.90
14126;DHT22;7141;49.484;11.242;2023-03-12T06:05:46;-0.70;99.90
14126;DHT22;7141;49.484;11.242;2023-03-12T06:08:12;-0.50;99.90
14126;DHT22;7141;49.484;11.242;2023-03-12T06:10:38;-0.50;99.90
14126;DHT22;7141;49.484;11.242;2023-03-12T06:13:04;-0.60;99.90
14126;DHT22;7141;49.484;11.242;2023-03-12T06:15:29;-0.70;99.90
14126;DHT22;7141;49.484;11.242;2023-03-12T06:17:55;-0.80;99.90
14126;DHT22;7141;49.484;11.242;2023-03-12T06:20:21;-0.80;99.90
14126;DHT22;7141;49.484;11.242;2023-03-12T06:22:47;-0.80;99.90
14126;DHT22;7141;49.484;11.242;2023-03-12T06:25:13;-0.80;99.90
14126;DHT22;7141;49.484;11.242;2023-03-12T06:27:39;-0.60;99.90
14126;DHT22;7141;49.484;11.242;2023-03-12T06:30:06;-0.50;99.90
14126;DHT22;7141;49.484;11.242;2023-03-12T06:32:32;-0.20;99.90
14126;DHT22;7141;49.484;11.242;2023-03-12T06:34:58;-0.10;99.90
14126;DHT22;7141;49.484;11.242;2023-03-12T06:37:25;0.10;99.90
14126;DHT22;7141;49.484;11.242;2023-03-12T06:39:51;0.20;99.90
14126;DHT22;7141;49.484;11.242;2023-03-12T06:42:17;0.20;99.90
14126;DHT22;7141;49.484;11.242;2023-03-12T06:44:44;0.20;99.90
14126;DHT22;7141;49.484;11.242;2023-03-12T06:47:12;0.30;99.90
14126;DHT22;7141;49.484;11.242;2023-03-12T06:49:38;0.40;99.90
14126;DHT22;7141;49.484;11.242;2023-03-12T06:52:04;0.60;99.90
14126;DHT22;7141;49.484;11.242;2023-03-12T06:54:30;0.60;99.90
14126;DHT22;7141;49.484;11.242;2023-03-12T06:56:56;0.60;99.90
14126;DHT22;7141;49.484;11.242;2023-03-12T06:59:24;0.80;99.90
14126;DHT22;7141;49.484;11.242;2023-03-12T07:01:49;0.60;99.90
14126;DHT22;7141;49.484;11.242;2023-03-12T07:04:15;0.60;99.90
14126;DHT22;7141;49.484;11.242;2023-03-12T07:06:40;0.70;99.90
14126;DHT22;7141;49.484;11.242;2023-03-12T07:09:06;0.90;99.90
14126;DHT22;7141;49.484;11.242;2023-03-12T07:11:32;1.10;99.90
14126;DHT22;7141;49.484;11.242;2023-03-12T07:13:57;1.20;99.90
14126;DHT22;7141;49.484;11.242;2023-03-12T07:16:23;1.40;99.90
14126;DHT22;7141;49.484;11.242;2023-03-12T07:18:49;1.60;99.90
14126;DHT22;7141;49.484;11.242;2023-03-12T07:21:15;1.80;99.90
14126;DHT22;7141;49.484;11.242;2023-03-12T07:23:47;1.90;99.70
14126;DHT22;7141;49.484;11.242;2023-03-12T07:26:13;1.90;99.80
14126;DHT22;7141;49.484;11.242;2023-03-12T07:28:39;2.10;99.20
14126;DHT22;7141;49.484;11.242;2023-03-12T07:31:05;2.30;98.60
14126;DHT22;7141;49.484;11.242;2023-03-12T07:33:31;2.60;97.70
14126;DHT22;7141;49.484;11.242;2023-03-12T07:35:56;2.60;96.40
14126;DHT22;7141;49.484;11.242;2023-03-12T07:38:22;2.60;95.20
14126;DHT22;7141;49.484;11.242;2023-03-12T07:40:51;2.50;95.50
14126;DHT22;7141;49.484;11.242;2023-03-12T07:43:18;2.60;95.30
14126;DHT22;7141;49.484;11.242;2023-03-12T07:45:43;2.70;94.40
14126;DHT22;7141;49.484;11.242;2023-03-12T07:48:09;2.70;94.30
14126;DHT22;7141;49.484;11.242;2023-03-12T07:50:35;2.80;93.80
14126;DHT22;7141;49.484;11.242;2023-03-12T07:53:01;3.20;93.90
14126;DHT22;7141;49.484;11.242;2023-03-12T07:55:27;3.40;93.30
14126;DHT22;7141;49.484;11.242;2023-03-12T07:57:53;3.80;92.10
14126;DHT22;7141;49.484;11.242;2023-03-12T08:00:21;3.80;91.20
14126;DHT22;7141;49.484;11.242;2023-03-12T08:02:46;4.10;91.00
14126;DHT22;7141;49.484;11.242;2023-03-12T08:05:12;4.20;89.80
14126;DHT22;7141;49.484;11.242;2023-03-12T08:07:37;4.40;88.20
14126;DHT22;7141;49.484;11.242;2023-03-12T08:10:06;4.70;86.40
14126;DHT22;7141;49.484;11.242;2023-03-12T08:12:32;5.00;85.20
14126;DHT22;7141;49.484;11.242;2023-03-12T08:14:58;5.20;84.00
14126;DHT22;7141;49.484;11.242;2023-03-12T08:17:23;5.20;82.20
14126;DHT22;7141;49.484;11.242;2023-03-12T08:19:49;5.20;81.50
14126;DHT22;7141;49.484;11.242;2023-03-12T08:22:15;5.10;81.50
14126;DHT22;7141;49.484;11.242;2023-03-12T08:24:42;5.40;80.10
14126;DHT22;7141;49.484;11.242;2023-03-12T08:27:08;5.60;79.80
14126;DHT22;7141;49.484;11.242;2023-03-12T08:29:33;5.90;79.10
14126;DHT22;7141;49.484;11.242;2023-03-12T08:32:00;5.90;76.80
14126;DHT22;7141;49.484;11.242;2023-03-12T08:34:25;5.90;76.50
14126;DHT22;7141;49.484;11.242;2023-03-12T08:36:51;5.90;75.90
14126;DHT22;7141;49.484;11.242;2023-03-12T08:39:17;5.80;75.60
14126;DHT22;7141;49.484;11.242;2023-03-12T08:41:42;6.00;75.10
14126;DHT22;7141;49.484;11.242;2023-03-12T08:44:08;5.00;73.30
14126;DHT22;7141;49.484;11.242;2023-03-12T08:46:34;6.30;74.80
14126;DHT22;7141;49.484;11.242;2023-03-12T08:48:59;6.70;73.70
14126;DHT22;7141;49.484;11.242;2023-03-12T08:51:25;6.60;72.40
14126;DHT22;7141;49.484;11.242;2023-03-12T08:53:50;6.70;71.60
14126;DHT22;7141;49.484;11.242;2023-03-12T08:56:16;6.60;70.60
14126;DHT22;7141;49.484;11.242;2023-03-12T08:58:41;6.50;70.80
14126;DHT22;7141;49.484;11.242;2023-03-12T09:01:11;6.60;71.70
14126;DHT22;7141;49.484;11.242;2023-03-12T09:03:37;6.80;71.70
14126;DHT22;7141;49.484;11.242;2023-03-12T09:06:09;7.10;71.10
14126;DHT22;7141;49.484;11.242;2023-03-12T09:08:38;7.20;70.60
14126;DHT22;7141;49.484;11.242;2023-03-12T09:11:04;7.40;69.60
14126;DHT22;7141;49.484;11.242;2023-03-12T09:13:30;7.30;69.20
14126;DHT22;7141;49.484;11.242;2023-03-12T09:15:59;7.30;69.50
14126;DHT22;7141;49.484;11.242;2023-03-12T09:18:26;7.30;68.80
14126;DHT22;7141;49.484;11.242;2023-03-12T09:20:51;7.30;69.00
14126;DHT22;7141;49.484;11.242;2023-03-12T09:23:17;7.00;68.50
14126;DHT22;7141;49.484;11.242;2023-03-12T09:25:46;6.90;70.30
14126;DHT22;7141;49.484;11.242;2023-03-12T09:28:12;7.20;70.90
14126;DHT22;7141;49.484;11.242;2023-03-12T09:30:38;7.10;71.10
14126;DHT22;7141;49.484;11.242;2023-03-12T09:33:04;7.40;70.50
14126;DHT22;7141;49.484;11.242;2023-03-12T09:35:29;7.70;69.30
14126;DHT22;7141;49.484;11.242;2023-03-12T09:37:56;7.90;68.20
14126;DHT22;7141;49.484;11.242;2023-03-12T09:40:24;7.90;67.80
14126;DHT22;7141;49.484;11.242;2023-03-12T09:42:54;7.80;67.80
14126;DHT22;7141;49.484;11.242;2023-03-12T09:45:24;7.80;67.70
14126;DHT22;7141;49.484;11.242;2023-03-12T09:47:56;8.20;68.40
14126;DHT22;7141;49.484;11.242;2023-03-12T09:50:29;8.40;67.10
14126;DHT22;7141;49.484;11.242;2023-03-12T09:53:01;8.60;66.30
14126;DHT22;7141;49.484;11.242;2023-03-12T09:55:34;8.80;67.30
14126;DHT22;7141;49.484;11.242;2023-03-12T09:58:02;8.90;65.40
14126;DHT22;7141;49.484;11.242;2023-03-12T10:00:33;9.10;65.40
14126;DHT22;7141;49.484;11.242;2023-03-12T10:17:17;9.50;63.70
14126;DHT22;7141;49.484;11.242;2023-03-12T10:25:35;8.40;66.20
14126;DHT22;7141;49.484;11.242;2023-03-12T10:28:10;8.50;66.90
14126;DHT22;7141;49.484;11.242;2023-03-12T10:30:40;8.40;66.90
14126;DHT22;7141;49.484;11.242;2023-03-12T10:33:11;8.40;67.90
14126;DHT22;7141;49.484;11.242;2023-03-12T10:35:38;8.20;68.10
14126;DHT22;7141;49.484;11.242;2023-03-12T10:38:12;8.20;67.60
14126;DHT22;7141;49.484;11.242;2023-03-12T10:40:39;8.40;69.60
14126;DHT22;7141;49.484;11.242;2023-03-12T10:43:05;8.40;72.50
14126;DHT22;7141;49.484;11.242;2023-03-12T10:46:00;8.40;71.30
14126;DHT22;7141;49.484;11.242;2023-03-12T10:48:30;8.10;72.40
14126;DHT22;7141;49.484;11.242;2023-03-12T10:51:13;7.70;73.30
14126;DHT22;7141;49.484;11.242;2023-03-12T10:53:44;7.80;74.70
14126;DHT22;7141;49.484;11.242;2023-03-12T10:56:19;7.90;74.30
14126;DHT22;7141;49.484;11.242;2023-03-12T10:58:49;8.00;75.00
14126;DHT22;7141;49.484;11.242;2023-03-12T11:01:30;8.00;75.70
14126;DHT22;7141;49.484;11.242;2023-03-12T11:04:23;7.90;76.20
14126;DHT22;7141;49.484;11.242;2023-03-12T11:09:28;7.90;76.20
14126;DHT22;7141;49.484;11.242;2023-03-12T11:11:53;7.80;76.80
14126;DHT22;7141;49.484;11.242;2023-03-12T11:14:24;8.00;76.70
14126;DHT22;7141;49.484;11.242;2023-03-12T11:16:51;8.20;76.60
14126;DHT22;7141;49.484;11.242;2023-03-12T11:19:29;8.50;76.20
14126;DHT22;7141;49.484;11.242;2023-03-12T11:21:57;8.20;77.30
14126;DHT22;7141;49.484;11.242;2023-03-12T11:24:24;8.40;77.70
14126;DHT22;7141;49.484;11.242;2023-03-12T11:32:13;8.20;77.10
14126;DHT22;7141;49.484;11.242;2023-03-12T11:34:40;8.10;77.70
14126;DHT22;7141;49.484;11.242;2023-03-12T11:45:34;7.70;80.30
14126;DHT22;7141;49.484;11.242;2023-03-12T11:54:56;7.30;83.10
14126;DHT22;7141;49.484;11.242;2023-03-12T11:57:27;7.20;84.10
14126;DHT22;7141;49.484;11.242;2023-03-12T12:08:11;7.00;88.10
14126;DHT22;7141;49.484;11.242;2023-03-12T12:24:20;7.00;92.40
14126;DHT22;7141;49.484;11.242;2023-03-12T12:27:02;6.90;92.70
14126;DHT22;7141;49.484;11.242;2023-03-12T12:37:56;6.90;94.00
14126;DHT22;7141;49.484;11.242;2023-03-12T12:43:20;7.00;94.70
14126;DHT22;7141;49.484;11.242;2023-03-12T12:45:49;6.90;95.10
14126;DHT22;7141;49.484;11.242;2023-03-12T12:50:44;6.90;95.60
14126;DHT22;7141;49.484;11.242;2023-03-12T12:56:22;6.80;96.10
14126;DHT22;7141;49.484;11.242;2023-03-12T13:01:36;6.80;97.20
14126;DHT22;7141;49.484;11.242;2023-03-12T13:04:10;6.90;97.40
14126;DHT22;7141;49.484;11.242;2023-03-12T13:06:53;7.00;97.80
14126;DHT22;7141;49.484;11.242;2023-03-12T13:09:23;7.00;98.20
14126;DHT22;7141;49.484;11.242;2023-03-12T13:12:06;6.90;98.30
14126;DHT22;7141;49.484;11.242;2023-03-12T13:14:40;6.90;98.60
14126;DHT22;7141;49.484;11.242;2023-03-12T13:17:32;6.90;98.80
14126;DHT22;7141;49.484;11.242;2023-03-12T13:22:57;6.70;99.90
14126;DHT22;7141;49.484;11.242;2023-03-12T13:25:35;6.80;99.90
14126;DHT22;7141;49.484;11.242;2023-03-12T13:36:46;6.50;99.90
14126;DHT22;7141;49.484;11.242;2023-03-12T13:41:49;6.50;99.90
14126;DHT22;7141;49.484;11.242;2023-03-12T13:50:00;6.50;99.90
14126;DHT22;7141;49.484;11.242;2023-03-12T13:52:48;6.60;99.90
14126;DHT22;7141;49.484;11.242;2023-03-12T13:55:25;6.80;99.90
14126;DHT22;7141;49.484;11.242;2023-03-12T13:57:58;6.80;99.90
14126;DHT22;7141;49.484;11.242;2023-03-12T14:00:40;5.90;99.90
14126;DHT22;7141;49.484;11.242;2023-03-12T14:11:42;7.10;99.90
14126;DHT22;7141;49.484;11.242;2023-03-12T14:17:20;7.10;99.90
14126;DHT22;7141;49.484;11.242;2023-03-12T14:20:01;7.10;99.90
14126;DHT22;7141;49.484;11.242;2023-03-12T14:22:31;7.20;99.90
14126;DHT22;7141;49.484;11.242;2023-03-12T14:25:45;7.10;99.90
14126;DHT22;7141;49.484;11.242;2023-03-12T14:27:46;7.10;99.90
14126;DHT22;7141;49.484;11.242;2023-03-12T14:30:20;7.20;99.90
14126;DHT22;7141;49.484;11.242;2023-03-12T14:32:51;7.10;99.90
14126;DHT22;7141;49.484;11.242;2023-03-12T14:35:22;7.20;99.90
14126;DHT22;7141;49.484;11.242;2023-03-12T14:38:23;7.40;99.90
14126;DHT22;7141;49.484;11.242;2023-03-12T14:43:40;7.30;99.90
14126;DHT22;7141;49.484;11.242;2023-03-12T14:46:31;7.40;99.90
14126;DHT22;7141;49.484;11.242;2023-03-12T14:48:56;7.40;99.90
14126;DHT22;7141;49.484;11.242;2023-03-12T14:51:27;7.50;99.90
14126;DHT22;7141;49.484;11.242;2023-03-12T14:53:53;7.70;99.90
14126;DHT22;7141;49.484;11.242;2023-03-12T14:58:58;7.80;99.90
14126;DHT22;7141;49.484;11.242;2023-03-12T15:01:30;7.80;99.90
14126;DHT22;7141;49.484;11.242;2023-03-12T15:04:01;8.20;99.90
14126;DHT22;7141;49.484;11.242;2023-03-12T15:06:30;8.40;99.90
14126;DHT22;7141;49.484;11.242;2023-03-12T15:09:05;8.50;99.90
14126;DHT22;7141;49.484;11.242;2023-03-12T15:11:33;8.60;99.90
14126;DHT22;7141;49.484;11.242;2023-03-12T15:14:08;8.70;99.90
14126;DHT22;7141;49.484;11.242;2023-03-12T15:16:36;8.60;99.90
14126;DHT22;7141;49.484;11.242;2023-03-12T15:19:03;8.50;99.90
14126;DHT22;7141;49.484;11.242;2023-03-12T15:21:32;8.30;99.90
14126;DHT22;7141;49.484;11.242;2023-03-12T15:23:59;8.20;99.90
14126;DHT22;7141;49.484;11.242;2023-03-12T15:26:26;8.00;99.90
14126;DHT22;7141;49.484;11.242;2023-03-12T15:29:01;7.80;99.90
14126;DHT22;7141;49.484;11.242;2023-03-12T15:31:43;7.80;99.90
14126;DHT22;7141;49.484;11.242;2023-03-12T15:34:11;7.70;99.90
14126;DHT22;7141;49.484;11.242;2023-03-12T15:36:46;7.70;99.90
14126;DHT22;7141;49.484;11.242;2023-03-12T15:39:25;7.60;99.90
14126;DHT22;7141;49.484;11.242;2023-03-12T15:41:53;7.60;99.90
14126;DHT22;7141;49.484;11.242;2023-03-12T15:44:22;7.50;99.90
14126;DHT22;7141;49.484;11.242;2023-03-12T15:46:56;7.50;99.90
14126;DHT22;7141;49.484;11.242;2023-03-12T15:49:30;7.50;99.90
14126;DHT22;7141;49.484;11.242;2023-03-12T15:54:27;7.40;99.90
14126;DHT22;7141;49.484;11.242;2023-03-12T15:56:53;6.30;99.90
14126;DHT22;7141;49.484;11.242;2023-03-12T15:59:24;7.40;99.90
14126;DHT22;7141;49.484;11.242;2023-03-12T16:01:52;7.50;99.90
14126;DHT22;7141;49.484;11.242;2023-03-12T16:04:19;7.60;99.90
14126;DHT22;7141;49.484;11.242;2023-03-12T16:06:46;7.70;99.90
14126;DHT22;7141;49.484;11.242;2023-03-12T16:09:20;7.80;99.90
14126;DHT22;7141;49.484;11.242;2023-03-12T16:11:47;7.90;99.90
14126;DHT22;7141;49.484;11.242;2023-03-12T16:14:19;7.90;99.90
14126;DHT22;7141;49.484;11.242;2023-03-12T16:16:47;8.90;99.90
14126;DHT22;7141;49.484;11.242;2023-03-12T16:19:14;7.90;99.90
14126;DHT22;7141;49.484;11.242;2023-03-12T16:21:41;7.80;99.90
14126;DHT22;7141;49.484;11.242;2023-03-12T16:24:06;7.80;99.90
14126;DHT22;7141;49.484;11.242;2023-03-12T16:26:34;7.70;99.90
14126;DHT22;7141;49.484;11.242;2023-03-12T16:29:01;7.60;99.90
14126;DHT22;7141;49.484;11.242;2023-03-12T16:31:26;7.60;99.90
14126;DHT22;7141;49.484;11.242;2023-03-12T16:33:52;7.50;99.90
14126;DHT22;7141;49.484;11.242;2023-03-12T16:36:17;7.50;99.90
14126;DHT22;7141;49.484;11.242;2023-03-12T16:38:44;7.50;99.90
14126;DHT22;7141;49.484;11.242;2023-03-12T16:41:15;7.40;99.90
14126;DHT22;7141;49.484;11.242;2023-03-12T16:43:45;7.40;99.90
14126;DHT22;7141;49.484;11.242;2023-03-12T16:46:15;7.40;99.90
14126;DHT22;7141;49.484;11.242;2023-03-12T16:48:43;8.20;99.90
14126;DHT22;7141;49.484;11.242;2023-03-12T16:51:13;7.20;99.90
14126;DHT22;7141;49.484;11.242;2023-03-12T16:53:39;7.20;99.90
14126;DHT22;7141;49.484;11.242;2023-03-12T16:56:05;7.20;99.90
14126;DHT22;7141;49.484;11.242;2023-03-12T16:58:32;7.20;99.90
14126;DHT22;7141;49.484;11.242;2023-03-12T17:00:58;7.20;99.90
14126;DHT22;7141;49.484;11.242;2023-03-12T17:03:29;7.10;99.90
14126;DHT22;7141;49.484;11.242;2023-03-12T17:05:56;7.10;99.90
14126;DHT22;7141;49.484;11.242;2023-03-12T17:08:21;7.10;99.90
14126;DHT22;7141;49.484;11.242;2023-03-12T17:10:47;7.10;99.90
14126;DHT22;7141;49.484;11.242;2023-03-12T17:13:21;7.00;99.90
14126;DHT22;7141;49.484;11.242;2023-03-12T17:15:48;6.90;99.90
14126;DHT22;7141;49.484;11.242;2023-03-12T17:18:14;6.80;99.90
14126;DHT22;7141;49.484;11.242;2023-03-12T17:20:40;6.80;99.90
14126;DHT22;7141;49.484;11.242;2023-03-12T17:23:07;6.80;99.90
14126;DHT22;7141;49.484;11.242;2023-03-12T17:25:36;6.80;99.90
14126;DHT22;7141;49.484;11.242;2023-03-12T17:28:02;6.80;99.90
14126;DHT22;7141;49.484;11.242;2023-03-12T17:30:29;6.80;99.90
14126;DHT22;7141;49.484;11.242;2023-03-12T17:33:06;6.80;99.90
14126;DHT22;7141;49.484;11.242;2023-03-12T17:35:32;6.80;99.90
14126;DHT22;7141;49.484;11.242;2023-03-12T17:37:58;6.80;99.90
14126;DHT22;7141;49.484;11.242;2023-03-12T17:40:23;6.80;99.90
14126;DHT22;7141;49.484;11.242;2023-03-12T17:42:49;6.80;99.90
14126;DHT22;7141;49.484;11.242;2023-03-12T17:45:15;6.80;99.90
14126;DHT22;7141;49.484;11.242;2023-03-12T17:47:40;6.80;99.90
14126;DHT22;7141;49.484;11.242;2023-03-12T17:50:07;6.80;99.90
14126;DHT22;7141;49.484;11.242;2023-03-12T17:52:33;6.80;99.90
14126;DHT22;7141;49.484;11.242;2023-03-12T17:54:59;6.80;99.90